Date,TemperatureHighF,TemperatureAvgF,TemperatureLowF,DewpointHighF,DewpointAvgF,DewpointLowF,HumidityHigh,HumidityAvg,HumidityLow,PressureMaxIn,PressureMinIn,WindSpeedMaxMPH,WindSpeedAvgMPH,GustSpeedMaxMPH,PrecipitationSumIn
2014-1-1,48,33,26,20,12,6,53,41,24,30.01,29.76,15,6,16,0.00
2014-1-2,33,28,23,21,18,14,84,68,45,29.75,29.33,11,4,12,0.00
2014-1-3,21,10,4,16,-8,-18,83,46,23,30.01,29.34,36,12,36,2.30
2014-1-4,36,20,6,6,-3,-10,50,37,22,29.99,29.85,22,11,23,0.07
2014-1-5,43,36,30,40,29,2,96,77,23,29.88,29.33,19,6,26,0.01
2014-1-6,46,23,-6,44,8,-32,96,56,24,29.60,29.21,27,15,35,1.69
2014-1-7,9,-1,-9,-22,-28,-35,31,26,21,29.96,29.59,23,10,24,0.24
2014-1-8,30,16,4,5,-12,-25,36,27,21,30.11,29.96,11,5,14,0.00
2014-1-9,34,26,23,14,9,1,62,48,30,30.21,30.07,11,6,17,0.01
2014-1-10,43,33,25,38,26,12,93,79,48,30.10,29.78,21,6,21,0.00
2014-1-11,52,46,36,51,43,30,98,90,57,29.78,29.18,25,12,27,0.24
2014-1-12,43,38,32,30,22,14,71,54,35,29.78,29.30,23,10,30,0.38
2014-1-13,55,46,40,32,23,15,63,42,23,29.77,29.55,19,9,23,0.01
2014-1-14,45,42,37,39,33,22,89,71,50,29.62,29.45,15,7,21,0.04
2014-1-15,51,35,24,28,23,19,89,63,34,29.65,29.58,14,6,16,0.00
2014-1-16,38,27,16,20,12,8,84,57,34,29.66,29.54,11,5,14,0.00
2014-1-17,46,34,26,26,17,7,87,51,34,29.61,29.51,17,6,100,0.01
2014-1-18,26,16,10,21,1,-10,83,53,27,29.59,29.48,20,10,26,0.46
2014-1-19,40,29,16,20,11,-1,64,47,32,29.54,29.41,24,10,27,0.24
2014-1-20,50,38,30,22,14,1,62,40,22,29.56,29.37,14,8,21,0.00
2014-1-21,30,20,7,21,13,-2,83,73,62,29.55,29.41,17,7,17,0.00
2014-1-22,11,3,-6,-2,-14,-19,66,46,27,29.63,29.49,21,10,24,0.07
2014-1-23,19,7,0,2,-12,-19,58,40,24,29.98,29.63,17,8,24,0.12
2014-1-24,22,7,-3,-10,-18,-21,42,30,20,30.00,29.59,17,10,27,0.13
2014-1-25,31,20,11,10,-4,-17,56,35,22,29.58,29.11,22,11,27,0.40
2014-1-26,36,20,6,11,-5,-15,72,35,21,29.48,29.31,22,10,26,0.30
2014-1-27,46,25,5,28,4,-19,67,39,24,29.75,29.33,23,12,28,0.44
2014-1-28,13,3,-4,-9,-23,-29,56,28,21,29.94,29.75,17,7,21,0.07
2014-1-29,18,7,-3,-9,-19,-27,57,29,20,29.89,29.73,21,9,25,0.11
2014-1-30,26,17,6,-5,-13,-24,33,25,21,29.97,29.73,22,8,24,0.05
2014-1-31,48,35,21,12,1,-8,26,23,20,29.89,29.72,17,4,17,0.00